sensor_id;sensor_type;location;lat;lon;timestamp;temperature;humidity
43679;DHT22;29279;50.858;4.392;2022-09-16T00:00:11;16.80;99.90
43679;DHT22;29279;50.858;4.392;2022-09-16T00:02:37;16.80;99.90
43679;DHT22;29279;50.858;4.392;2022-09-16T00:05:02;16.90;99.90
43679;DHT22;29279;50.858;4.392;2022-09-16T00:07:29;16.70;99.90
43679;DHT22;29279;50.858;4.392;2022-09-16T00:09:54;16.70;99.90
43679;DHT22;29279;50.858;4.392;2022-09-16T00:12:20;16.70;99.90
43679;DHT22;29279;50.858;4.392;2022-09-16T00:14:46;16.70;99.90
43679;DHT22;29279;50.858;4.392;2022-09-16T00:17:12;16.60;99.90
43679;DHT22;29279;50.858;4.392;2022-09-16T00:19:38;16.50;99.90
43679;DHT22;29279;50.858;4.392;2022-09-16T00:22:04;16.40;99.90
43679;DHT22;29279;50.858;4.392;2022-09-16T00:24:30;16.30;99.90
43679;DHT22;29279;50.858;4.392;2022-09-16T00:26:55;16.30;99.90
43679;DHT22;29279;50.858;4.392;2022-09-16T00:29:21;16.30;99.90
43679;DHT22;29279;50.858;4.392;2022-09-16T00:31:47;16.30;99.90
43679;DHT22;29279;50.858;4.392;2022-09-16T00:34:12;16.30;99.90
43679;DHT22;29279;50.858;4.392;2022-09-16T00:36:38;16.30;99.90
43679;DHT22;29279;50.858;4.392;2022-09-16T00:39:04;16.20;99.90
43679;DHT22;29279;50.858;4.392;2022-09-16T00:41:30;16.20;99.90
43679;DHT22;29279;50.858;4.392;2022-09-16T00:44:04;16.20;99.90
43679;DHT22;29279;50.858;4.392;2022-09-16T00:46:43;16.00;99.90
43679;DHT22;29279;50.858;4.392;2022-09-16T00:51:41;15.80;99.90
43679;DHT22;29279;50.858;4.392;2022-09-16T00:54:08;15.70;99.90
43679;DHT22;29279;50.858;4.392;2022-09-16T00:56:37;15.70;99.90
43679;DHT22;29279;50.858;4.392;2022-09-16T00:59:16;15.70;99.90
43679;DHT22;29279;50.858;4.392;2022-09-16T01:01:44;15.80;99.90
43679;DHT22;29279;50.858;4.392;2022-09-16T01:04:18;15.80;99.90
43679;DHT22;29279;50.858;4.392;2022-09-16T01:06:45;15.70;99.90
43679;DHT22;29279;50.858;4.392;2022-09-16T01:09:11;15.60;99.90
43679;DHT22;29279;50.858;4.392;2022-09-16T01:11:37;15.60;99.90
43679;DHT22;29279;50.858;4.392;2022-09-16T01:14:03;15.60;99.90
43679;DHT22;29279;50.858;4.392;2022-09-16T01:28:57;15.70;99.90
43679;DHT22;29279;50.858;4.392;2022-09-16T01:31:35;15.50;99.90
43679;DHT22;29279;50.858;4.392;2022-09-16T01:34:23;15.50;99.90
43679;DHT22;29279;50.858;4.392;2022-09-16T01:39:48;15.40;99.90
43679;DHT22;29279;50.858;4.392;2022-09-16T01:42:35;15.30;99.90
43679;DHT22;29279;50.858;4.392;2022-09-16T01:45:21;15.30;99.90
43679;DHT22;29279;50.858;4.392;2022-09-16T01:53:43;15.30;99.90
43679;DHT22;29279;50.858;4.392;2022-09-16T02:01:16;15.20;99.90
43679;DHT22;29279;50.858;4.392;2022-09-16T02:03:46;15.30;99.90
43679;DHT22;29279;50.858;4.392;2022-09-16T02:06:17;15.30;99.90
43679;DHT22;29279;50.858;4.392;2022-09-16T02:09:11;15.40;99.90
43679;DHT22;29279;50.858;4.392;2022-09-16T02:11:38;15.50;99.90
43679;DHT22;29279;50.858;4.392;2022-09-16T02:14:14;15.40;99.90
43679;DHT22;29279;50.858;4.392;2022-09-16T02:19:19;15.20;99.90
43679;DHT22;29279;50.858;4.392;2022-09-16T02:21:45;15.20;99.90
43679;DHT22;29279;50.858;4.392;2022-09-16T02:24:16;15.10;99.90
43679;DHT22;29279;50.858;4.392;2022-09-16T02:26:47;15.10;99.90
43679;DHT22;29279;50.858;4.392;2022-09-16T02:29:20;15.20;99.90
43679;DHT22;29279;50.858;4.392;2022-09-16T02:31:48;15.30;99.90
43679;DHT22;29279;50.858;4.392;2022-09-16T02:34:18;15.40;99.90
43679;DHT22;29279;50.858;4.392;2022-09-16T02:36:50;15.60;99.90
43679;DHT22;29279;50.858;4.392;2022-09-16T02:39:24;15.70;99.90
43679;DHT22;29279;50.858;4.392;2022-09-16T02:41:52;15.90;99.90
43679;DHT22;29279;50.858;4.392;2022-09-16T02:44:19;15.90;99.90
43679;DHT22;29279;50.858;4.392;2022-09-16T02:54:46;15.90;99.90
43679;DHT22;29279;50.858;4.392;2022-09-16T02:57:14;15.90;99.90
43679;DHT22;29279;50.858;4.392;2022-09-16T02:59:40;15.80;99.90
43679;DHT22;29279;50.858;4.392;2022-09-16T03:02:06;15.70;99.90
43679;DHT22;29279;50.858;4.392;2022-09-16T03:04:33;15.60;99.90
43679;DHT22;29279;50.858;4.392;2022-09-16T03:06:59;15.60;99.90
43679;DHT22;29279;50.858;4.392;2022-09-16T03:09:27;15.60;99.90
43679;DHT22;29279;50.858;4.392;2022-09-16T03:12:08;15.60;99.90
43679;DHT22;29279;50.858;4.392;2022-09-16T03:23:11;15.60;99.90
43679;DHT22;29279;50.858;4.392;2022-09-16T03:28:23;15.70;99.90
43679;DHT22;29279;50.858;4.392;2022-09-16T03:33:26;15.60;99.90
43679;DHT22;29279;50.858;4.392;2022-09-16T03:35:57;15.60;99.90
43679;DHT22;29279;50.858;4.392;2022-09-16T03:38:24;15.60;99.90
43679;DHT22;29279;50.858;4.392;2022-09-16T03:40:51;15.40;99.90
43679;DHT22;29279;50.858;4.392;2022-09-16T03:43:17;15.50;99.90
43679;DHT22;29279;50.858;4.392;2022-09-16T03:45:43;15.50;99.90
43679;DHT22;29279;50.858;4.392;2022-09-16T03:48:11;15.40;99.90
43679;DHT22;29279;50.858;4.392;2022-09-16T03:50:37;15.40;99.90
43679;DHT22;29279;50.858;4.392;2022-09-16T03:53:03;15.30;99.90
43679;DHT22;29279;50.858;4.392;2022-09-16T03:55:28;15.30;99.90
43679;DHT22;29279;50.858;4.392;2022-09-16T03:57:54;15.30;99.90
43679;DHT22;29279;50.858;4.392;2022-09-16T04:00:21;15.40;99.90
43679;DHT22;29279;50.858;4.392;2022-09-16T04:02:47;15.30;99.90
43679;DHT22;29279;50.858;4.392;2022-09-16T04:05:13;15.30;99.90
43679;DHT22;29279;50.858;4.392;2022-09-16T04:07:39;15.30;99.90
43679;DHT22;29279;50.858;4.392;2022-09-16T04:10:05;15.30;99.90
43679;DHT22;29279;50.858;4.392;2022-09-16T04:12:31;15.20;99.90
43679;DHT22;29279;50.858;4.392;2022-09-16T04:14:57;15.20;99.90
43679;DHT22;29279;50.858;4.392;2022-09-16T04:17:23;15.20;99.90
43679;DHT22;29279;50.858;4.392;2022-09-16T04:19:49;15.10;99.90
43679;DHT22;29279;50.858;4.392;2022-09-16T04:22:15;15.00;99.90
43679;DHT22;29279;50.858;4.392;2022-09-16T04:24:41;14.90;99.90
43679;DHT22;29279;50.858;4.392;2022-09-16T04:27:07;14.80;99.90
43679;DHT22;29279;50.858;4.392;2022-09-16T04:29:32;14.90;99.90
43679;DHT22;29279;50.858;4.392;2022-09-16T04:31:58;14.90;99.90
43679;DHT22;29279;50.858;4.392;2022-09-16T04:34:24;14.80;99.90
43679;DHT22;29279;50.858;4.392;2022-09-16T04:36:49;14.90;99.90
43679;DHT22;29279;50.858;4.392;2022-09-16T04:39:15;14.70;99.90
43679;DHT22;29279;50.858;4.392;2022-09-16T04:41:41;14.70;99.90
43679;DHT22;29279;50.858;4.392;2022-09-16T04:44:08;14.80;99.90
43679;DHT22;29279;50.858;4.392;2022-09-16T04:46:34;14.80;99.90
43679;DHT22;29279;50.858;4.392;2022-09-16T04:49:00;15.00;99.90
43679;DHT22;29279;50.858;4.392;2022-09-16T04:51:27;15.00;99.90
43679;DHT22;29279;50.858;4.392;2022-09-16T04:53:53;15.10;99.90
43679;DHT22;29279;50.858;4.392;2022-09-16T04:56:23;15.20;99.90
43679;DHT22;29279;50.858;4.392;2022-09-16T04:58:51;15.30;99.90
43679;DHT22;29279;50.858;4.392;2022-09-16T05:01:20;15.30;99.90
43679;DHT22;29279;50.858;4.392;2022-09-16T05:03:48;15.30;99.90
43679;DHT22;29279;50.858;4.392;2022-09-16T05:06:22;15.30;99.90
43679;DHT22;29279;50.858;4.392;2022-09-16T05:08:49;15.30;99.90
43679;DHT22;29279;50.858;4.392;2022-09-16T05:11:18;15.20;99.90
43679;DHT22;29279;50.858;4.392;2022-09-16T05:13:44;15.10;99.90
43679;DHT22;29279;50.858;4.392;2022-09-16T05:16:15;15.10;99.90
43679;DHT22;29279;50.858;4.392;2022-09-16T05:18:42;15.20;99.90
43679;DHT22;29279;50.858;4.392;2022-09-16T05:21:11;15.10;99.90
43679;DHT22;29279;50.858;4.392;2022-09-16T05:23:38;15.20;99.90
43679;DHT22;29279;50.858;4.392;2022-09-16T05:26:14;15.30;99.90
43679;DHT22;29279;50.858;4.392;2022-09-16T05:28:40;15.40;99.90
43679;DHT22;29279;50.858;4.392;2022-09-16T05:31:17;15.40;99.90
43679;DHT22;29279;50.858;4.392;2022-09-16T05:33:45;15.50;99.90
43679;DHT22;29279;50.858;4.392;2022-09-16T05:36:14;15.50;99.90
43679;DHT22;29279;50.858;4.392;2022-09-16T05:38:40;15.40;99.90
43679;DHT22;29279;50.858;4.392;2022-09-16T05:41:06;15.40;99.90
43679;DHT22;29279;50.858;4.392;2022-09-16T05:43:32;15.40;99.90
43679;DHT22;29279;50.858;4.392;2022-09-16T05:45:58;15.50;99.90
43679;DHT22;29279;50.858;4.392;2022-09-16T05:48:24;15.40;99.90
43679;DHT22;29279;50.858;4.392;2022-09-16T05:50:55;15.40;99.90
43679;DHT22;29279;50.858;4.392;2022-09-16T05:53:22;15.40;99.90
43679;DHT22;29279;50.858;4.392;2022-09-16T05:58:28;15.50;99.90
43679;DHT22;29279;50.858;4.392;2022-09-16T06:01:15;15.60;99.90
43679;DHT22;29279;50.858;4.392;2022-09-16T06:03:43;15.70;99.90
43679;DHT22;29279;50.858;4.392;2022-09-16T06:06:27;15.70;99.90
43679;DHT22;29279;50.858;4.392;2022-09-16T06:08:58;15.80;99.90
43679;DHT22;29279;50.858;4.392;2022-09-16T06:11:25;15.60;99.90
43679;DHT22;29279;50.858;4.392;2022-09-16T06:13:59;15.50;99.90
43679;DHT22;29279;50.858;4.392;2022-09-16T06:16:26;15.50;99.90
43679;DHT22;29279;50.858;4.392;2022-09-16T06:18:53;15.50;99.90
43679;DHT22;29279;50.858;4.392;2022-09-16T06:21:20;15.40;99.90
43679;DHT22;29279;50.858;4.392;2022-09-16T06:23:46;15.40;99.90
43679;DHT22;29279;50.858;4.392;2022-09-16T06:26:15;15.40;99.90
43679;DHT22;29279;50.858;4.392;2022-09-16T06:28:41;15.50;99.90
43679;DHT22;29279;50.858;4.392;2022-09-16T06:31:22;15.40;99.90
43679;DHT22;29279;50.858;4.392;2022-09-16T06:33:48;15.40;99.90
43679;DHT22;29279;50.858;4.392;2022-09-16T06:36:19;15.40;99.90
43679;DHT22;29279;50.858;4.392;2022-09-16T06:38:46;15.40;99.90
43679;DHT22;29279;50.858;4.392;2022-09-16T06:41:13;15.50;99.90
43679;DHT22;29279;50.858;4.392;2022-09-16T06:43:40;15.60;99.90
43679;DHT22;29279;50.858;4.392;2022-09-16T06:46:18;15.60;99.90
43679;DHT22;29279;50.858;4.392;2022-09-16T06:48:45;15.70;99.90
43679;DHT22;29279;50.858;4.392;2022-09-16T06:51:14;15.70;99.90
43679;DHT22;29279;50.858;4.392;2022-09-16T06:53:41;15.70;99.90
43679;DHT22;29279;50.858;4.392;2022-09-16T06:56:09;15.70;99.90
43679;DHT22;29279;50.858;4.392;2022-09-16T06:58:39;15.40;99.90
43679;DHT22;29279;50.858;4.392;2022-09-16T07:01:11;15.30;99.90
43679;DHT22;29279;50.858;4.392;2022-09-16T07:03:38;15.20;99.90
43679;DHT22;29279;50.858;4.392;2022-09-16T07:06:04;15.10;99.90
43679;DHT22;29279;50.858;4.392;2022-09-16T07:08:32;15.10;99.90
43679;DHT22;29279;50.858;4.392;2022-09-16T07:11:20;15.10;99.90
43679;DHT22;29279;50.858;4.392;2022-09-16T07:13:46;15.10;99.90
43679;DHT22;29279;50.858;4.392;2022-09-16T07:16:14;15.10;99.90
43679;DHT22;29279;50.858;4.392;2022-09-16T07:18:40;15.10;99.90
43679;DHT22;29279;50.858;4.392;2022-09-16T07:21:12;15.00;99.90
43679;DHT22;29279;50.858;4.392;2022-09-16T07:23:39;15.00;99.90
43679;DHT22;29279;50.858;4.392;2022-09-16T07:26:07;14.90;99.90
43679;DHT22;29279;50.858;4.392;2022-09-16T07:28:34;14.70;99.90
43679;DHT22;29279;50.858;4.392;2022-09-16T07:31:01;14.60;99.90
43679;DHT22;29279;50.858;4.392;2022-09-16T07:33:29;14.60;99.90
43679;DHT22;29279;50.858;4.392;2022-09-16T07:36:02;14.60;99.90
43679;DHT22;29279;50.858;4.392;2022-09-16T07:38:29;14.40;99.90
43679;DHT22;29279;50.858;4.392;2022-09-16T07:40:55;14.50;99.90
43679;DHT22;29279;50.858;4.392;2022-09-16T07:43:21;14.70;99.90
43679;DHT22;29279;50.858;4.392;2022-09-16T07:45:54;14.80;99.90
43679;DHT22;29279;50.858;4.392;2022-09-16T07:48:20;15.00;99.90
43679;DHT22;29279;50.858;4.392;2022-09-16T07:50:54;15.00;99.90
43679;DHT22;29279;50.858;4.392;2022-09-16T07:53:20;14.90;99.90
43679;DHT22;29279;50.858;4.392;2022-09-16T07:55:45;14.90;99.90
43679;DHT22;29279;50.858;4.392;2022-09-16T07:58:11;15.00;99.90
43679;DHT22;29279;50.858;4.392;2022-09-16T08:00:37;15.30;99.90
43679;DHT22;29279;50.858;4.392;2022-09-16T08:03:03;15.30;99.90
43679;DHT22;29279;50.858;4.392;2022-09-16T08:05:30;15.40;99.90
43679;DHT22;29279;50.858;4.392;2022-09-16T08:07:56;15.50;99.90
43679;DHT22;29279;50.858;4.392;2022-09-16T08:10:21;15.70;99.90
43679;DHT22;29279;50.858;4.392;2022-09-16T08:12:47;15.80;99.90
43679;DHT22;29279;50.858;4.392;2022-09-16T08:15:13;15.90;99.90
43679;DHT22;29279;50.858;4.392;2022-09-16T08:17:40;16.00;99.90
43679;DHT22;29279;50.858;4.392;2022-09-16T08:20:06;16.00;99.90
43679;DHT22;29279;50.858;4.392;2022-09-16T08:22:34;15.80;99.90
43679;DHT22;29279;50.858;4.392;2022-09-16T08:25:00;15.80;99.90
43679;DHT22;29279;50.858;4.392;2022-09-16T08:27:25;15.90;99.90
43679;DHT22;29279;50.858;4.392;2022-09-16T08:29:52;16.00;99.90
43679;DHT22;29279;50.858;4.392;2022-09-16T08:32:18;16.10;99.90
43679;DHT22;29279;50.858;4.392;2022-09-16T08:34:43;16.00;99.90
43679;DHT22;29279;50.858;4.392;2022-09-16T08:37:09;15.90;99.90
43679;DHT22;29279;50.858;4.392;2022-09-16T08:39:35;15.90;99.90
43679;DHT22;29279;50.858;4.392;2022-09-16T08:42:25;16.00;99.90
43679;DHT22;29279;50.858;4.392;2022-09-16T08:45:33;15.90;99.90
43679;DHT22;29279;50.858;4.392;2022-09-16T08:50:29;15.20;99.90
43679;DHT22;29279;50.858;4.392;2022-09-16T08:52:59;15.30;99.90
43679;DHT22;29279;50.858;4.392;2022-09-16T08:55:30;15.40;99.90
43679;DHT22;29279;50.858;4.392;2022-09-16T08:58:09;15.40;99.90
43679;DHT22;29279;50.858;4.392;2022-09-16T09:00:38;15.50;99.90
43679;DHT22;29279;50.858;4.392;2022-09-16T09:03:15;15.30;99.90
43679;DHT22;29279;50.858;4.392;2022-09-16T09:05:57;15.10;99.90
43679;DHT22;29279;50.858;4.392;2022-09-16T09:11:36;15.20;99.90
43679;DHT22;29279;50.858;4.392;2022-09-16T09:22:42;15.00;99.90
43679;DHT22;29279;50.858;4.392;2022-09-16T09:30:22;15.40;99.90
43679;DHT22;29279;50.858;4.392;2022-09-16T09:35:57;15.40;99.90
43679;DHT22;29279;50.858;4.392;2022-09-16T09:41:35;16.00;99.90
43679;DHT22;29279;50.858;4.392;2022-09-16T09:47:00;18.30;99.90
43679;DHT22;29279;50.858;4.392;2022-09-16T09:49:34;19.00;99.90
43679;DHT22;29279;50.858;4.392;2022-09-16T09:52:26;19.70;99.90
43679;DHT22;29279;50.858;4.392;2022-09-16T09:54:54;19.40;99.90
43679;DHT22;29279;50.858;4.392;2022-09-16T09:57:30;19.50;99.90
43679;DHT22;29279;50.858;4.392;2022-09-16T10:00:16;20.50;99.90
43679;DHT22;29279;50.858;4.392;2022-09-16T10:02:43;21.60;99.90
43679;DHT22;29279;50.858;4.392;2022-09-16T10:05:24;21.50;99.90
43679;DHT22;29279;50.858;4.392;2022-09-16T10:07:54;21.20;99.90
43679;DHT22;29279;50.858;4.392;2022-09-16T10:10:22;21.20;99.90
43679;DHT22;29279;50.858;4.392;2022-09-16T10:12:49;21.90;99.90
43679;DHT22;29279;50.858;4.392;2022-09-16T10:15:19;21.90;98.90
43679;DHT22;29279;50.858;4.392;2022-09-16T10:17:49;22.30;98.70
43679;DHT22;29279;50.858;4.392;2022-09-16T10:20:30;23.60;96.70
43679;DHT22;29279;50.858;4.392;2022-09-16T10:23:13;23.90;94.80
43679;DHT22;29279;50.858;4.392;2022-09-16T10:25:40;24.20;94.20
43679;DHT22;29279;50.858;4.392;2022-09-16T10:28:21;23.10;94.20
43679;DHT22;29279;50.858;4.392;2022-09-16T10:30:51;22.50;94.90
43679;DHT22;29279;50.858;4.392;2022-09-16T10:33:34;21.90;95.70
43679;DHT22;29279;50.858;4.392;2022-09-16T10:36:18;21.20;96.90
43679;DHT22;29279;50.858;4.392;2022-09-16T10:38:57;20.60;97.40
43679;DHT22;29279;50.858;4.392;2022-09-16T10:41:32;19.40;99.90
43679;DHT22;29279;50.858;4.392;2022-09-16T10:44:11;18.40;99.90
43679;DHT22;29279;50.858;4.392;2022-09-16T10:47:13;17.90;99.90
43679;DHT22;29279;50.858;4.392;2022-09-16T10:49:49;17.90;99.90
43679;DHT22;29279;50.858;4.392;2022-09-16T10:52:21;18.00;99.90
43679;DHT22;29279;50.858;4.392;2022-09-16T10:54:47;18.20;99.90
43679;DHT22;29279;50.858;4.392;2022-09-16T10:57:29;18.30;99.90
43679;DHT22;29279;50.858;4.392;2022-09-16T11:05:42;20.60;99.90
43679;DHT22;29279;50.858;4.392;2022-09-16T11:08:38;21.70;99.90
43679;DHT22;29279;50.858;4.392;2022-09-16T11:11:18;20.90;99.90
43679;DHT22;29279;50.858;4.392;2022-09-16T11:22:22;20.10;99.90
43679;DHT22;29279;50.858;4.392;2022-09-16T11:30:24;19.30;99.90
43679;DHT22;29279;50.858;4.392;2022-09-16T11:33:12;19.00;99.90
43679;DHT22;29279;50.858;4.392;2022-09-16T11:57:35;17.20;99.90
43679;DHT22;29279;50.858;4.392;2022-09-16T12:02:36;16.20;99.90
43679;DHT22;29279;50.858;4.392;2022-09-16T12:05:36;15.80;99.90
43679;DHT22;29279;50.858;4.392;2022-09-16T12:08:19;15.40;99.90
43679;DHT22;29279;50.858;4.392;2022-09-16T12:10:59;15.30;99.90
43679;DHT22;29279;50.858;4.392;2022-09-16T12:13:40;15.10;99.90
43679;DHT22;29279;50.858;4.392;2022-09-16T12:16:14;15.00;99.90
43679;DHT22;29279;50.858;4.392;2022-09-16T12:18:53;15.00;99.90
43679;DHT22;29279;50.858;4.392;2022-09-16T12:21:32;15.00;99.90
43679;DHT22;29279;50.858;4.392;2022-09-16T12:24:10;15.20;99.90
43679;DHT22;29279;50.858;4.392;2022-09-16T12:26:49;15.30;99.90
43679;DHT22;29279;50.858;4.392;2022-09-16T12:29:27;15.50;99.90
43679;DHT22;29279;50.858;4.392;2022-09-16T12:31:54;15.70;99.90
43679;DHT22;29279;50.858;4.392;2022-09-16T12:34:27;15.80;99.90
43679;DHT22;29279;50.858;4.392;2022-09-16T12:37:11;16.20;99.90
43679;DHT22;29279;50.858;4.392;2022-09-16T12:39:39;16.50;99.90
43679;DHT22;29279;50.858;4.392;2022-09-16T12:42:42;16.80;99.90
43679;DHT22;29279;50.858;4.392;2022-09-16T12:45:34;16.90;99.90
43679;DHT22;29279;50.858;4.392;2022-09-16T13:02:18;17.50;99.90
43679;DHT22;29279;50.858;4.392;2022-09-16T13:04:46;17.30;99.90
43679;DHT22;29279;50.858;4.392;2022-09-16T13:07:28;17.30;99.90
43679;DHT22;29279;50.858;4.392;2022-09-16T13:10:05;17.20;99.90
43679;DHT22;29279;50.858;4.392;2022-09-16T13:12:32;17.20;99.90
43679;DHT22;29279;50.858;4.392;2022-09-16T13:15:03;17.20;99.90
43679;DHT22;29279;50.858;4.392;2022-09-16T13:17:37;17.30;99.90
43679;DHT22;29279;50.858;4.392;2022-09-16T13:20:19;17.40;99.90
43679;DHT22;29279;50.858;4.392;2022-09-16T13:23:01;17.30;99.90
43679;DHT22;29279;50.858;4.392;2022-09-16T13:25:33;17.50;99.90
43679;DHT22;29279;50.858;4.392;2022-09-16T13:28:01;18.10;99.90
43679;DHT22;29279;50.858;4.392;2022-09-16T13:35:39;18.30;99.90
43679;DHT22;29279;50.858;4.392;2022-09-16T13:38:20;18.30;99.90
43679;DHT22;29279;50.858;4.392;2022-09-16T13:40:57;18.10;99.90
43679;DHT22;29279;50.858;4.392;2022-09-16T13:43:33;17.40;99.90
43679;DHT22;29279;50.858;4.392;2022-09-16T13:46:08;16.80;99.90
43679;DHT22;29279;50.858;4.392;2022-09-16T13:48:47;16.60;99.90
43679;DHT22;29279;50.858;4.392;2022-09-16T13:51:20;16.40;99.90
43679;DHT22;29279;50.858;4.392;2022-09-16T13:53:50;16.40;99.90
43679;DHT22;29279;50.858;4.392;2022-09-16T14:05:15;20.30;99.90
43679;DHT22;29279;50.858;4.392;2022-09-16T14:13:23;23.00;98.70
43679;DHT22;29279;50.858;4.392;2022-09-16T14:15:54;22.30;99.30
43679;DHT22;29279;50.858;4.392;2022-09-16T14:18:27;22.60;98.10
43679;DHT22;29279;50.858;4.392;2022-09-16T14:21:02;23.80;96.60
43679;DHT22;29279;50.858;4.392;2022-09-16T14:23:30;22.80;95.60
43679;DHT22;29279;50.858;4.392;2022-09-16T14:25:56;22.80;96.60
43679;DHT22;29279;50.858;4.392;2022-09-16T14:28:23;22.60;96.70
43679;DHT22;29279;50.858;4.392;2022-09-16T14:31:00;21.70;97.70
43679;DHT22;29279;50.858;4.392;2022-09-16T14:33:30;20.70;98.00
43679;DHT22;29279;50.858;4.392;2022-09-16T14:35:57;20.10;99.70
43679;DHT22;29279;50.858;4.392;2022-09-16T14:38:37;20.10;99.20
43679;DHT22;29279;50.858;4.392;2022-09-16T14:41:07;20.30;98.00
43679;DHT22;29279;50.858;4.392;2022-09-16T14:43:36;20.30;96.90
43679;DHT22;29279;50.858;4.392;2022-09-16T14:46:02;20.80;96.70
43679;DHT22;29279;50.858;4.392;2022-09-16T14:48:34;20.60;96.50
43679;DHT22;29279;50.858;4.392;2022-09-16T14:51:01;19.80;97.80
43679;DHT22;29279;50.858;4.392;2022-09-16T14:53:32;19.20;97.50
43679;DHT22;29279;50.858;4.392;2022-09-16T14:56:00;18.80;98.00
43679;DHT22;29279;50.858;4.392;2022-09-16T14:58:30;18.50;98.20
43679;DHT22;29279;50.858;4.392;2022-09-16T15:06:10;19.40;97.90
43679;DHT22;29279;50.858;4.392;2022-09-16T15:08:44;19.20;97.80
43679;DHT22;29279;50.858;4.392;2022-09-16T15:11:17;19.30;97.50
43679;DHT22;29279;50.858;4.392;2022-09-16T15:13:44;19.50;96.60
43679;DHT22;29279;50.858;4.392;2022-09-16T15:16:13;19.90;96.80
43679;DHT22;29279;50.858;4.392;2022-09-16T15:18:55;19.90;97.10
43679;DHT22;29279;50.858;4.392;2022-09-16T15:21:27;19.70;96.00
43679;DHT22;29279;50.858;4.392;2022-09-16T15:23:56;19.50;95.20
43679;DHT22;29279;50.858;4.392;2022-09-16T15:29:26;19.40;96.60
43679;DHT22;29279;50.858;4.392;2022-09-16T15:31:52;19.10;96.40
43679;DHT22;29279;50.858;4.392;2022-09-16T15:34:21;18.90;96.30
43679;DHT22;29279;50.858;4.392;2022-09-16T15:36:54;18.80;96.50
43679;DHT22;29279;50.858;4.392;2022-09-16T15:39:30;18.90;96.90
43679;DHT22;29279;50.858;4.392;2022-09-16T15:42:12;18.80;97.20
43679;DHT22;29279;50.858;4.392;2022-09-16T15:44:59;18.80;97.20
43679;DHT22;29279;50.858;4.392;2022-09-16T15:47:28;18.90;97.70
43679;DHT22;29279;50.858;4.392;2022-09-16T15:49:59;18.90;97.00
43679;DHT22;29279;50.858;4.392;2022-09-16T15:52:25;18.70;96.90
43679;DHT22;29279;50.858;4.392;2022-09-16T15:54:58;18.40;97.50
43679;DHT22;29279;50.858;4.392;2022-09-16T15:57:29;18.10;98.40
43679;DHT22;29279;50.858;4.392;2022-09-16T16:00:05;18.00;99.10
43679;DHT22;29279;50.858;4.392;2022-09-16T16:02:59;18.20;99.20
43679;DHT22;29279;50.858;4.392;2022-09-16T16:05:28;18.30;99.40
43679;DHT22;29279;50.858;4.392;2022-09-16T16:08:00;18.30;98.90
43679;DHT22;29279;50.858;4.392;2022-09-16T16:10:32;18.40;99.20
43679;DHT22;29279;50.858;4.392;2022-09-16T16:13:00;18.20;99.40
43679;DHT22;29279;50.858;4.392;2022-09-16T16:15:31;18.10;98.90
43679;DHT22;29279;50.858;4.392;2022-09-16T16:18:00;17.90;99.00
43679;DHT22;29279;50.858;4.392;2022-09-16T16:20:27;17.70;99.30
43679;DHT22;29279;50.858;4.392;2022-09-16T16:22:53;17.50;99.60
43679;DHT22;29279;50.858;4.392;2022-09-16T16:25:19;17.30;99.90
43679;DHT22;29279;50.858;4.392;2022-09-16T16:27:45;17.20;99.90
43679;DHT22;29279;50.858;4.392;2022-09-16T16:30:11;17.10;99.90
43679;DHT22;29279;50.858;4.392;2022-09-16T16:32:37;16.90;99.90
43679;DHT22;29279;50.858;4.392;2022-09-16T16:35:04;16.70;99.90
43679;DHT22;29279;50.858;4.392;2022-09-16T16:37:31;16.50;99.90
43679;DHT22;29279;50.858;4.392;2022-09-16T16:39:56;16.50;99.90
43679;DHT22;29279;50.858;4.392;2022-09-16T16:42:22;16.50;99.90
43679;DHT22;29279;50.858;4.392;2022-09-16T16:44:49;16.40;99.90
43679;DHT22;29279;50.858;4.392;2022-09-16T16:47:15;16.30;99.90
43679;DHT22;29279;50.858;4.392;2022-09-16T16:49:41;16.30;99.90
43679;DHT22;29279;50.858;4.392;2022-09-16T16:52:07;16.00;99.90
43679;DHT22;29279;50.858;4.392;2022-09-16T16:54:34;15.90;99.90
43679;DHT22;29279;50.858;4.392;2022-09-16T16:57:00;15.80;99.90
43679;DHT22;29279;50.858;4.392;2022-09-16T16:59:28;15.70;99.90
43679;DHT22;29279;50.858;4.392;2022-09-16T17:01:55;15.70;99.90
43679;DHT22;29279;50.858;4.392;2022-09-16T17:04:22;15.50;99.90
43679;DHT22;29279;50.858;4.392;2022-09-16T17:06:48;15.50;99.90
43679;DHT22;29279;50.858;4.392;2022-09-16T17:09:15;15.30;99.90
43679;DHT22;29279;50.858;4.392;2022-09-16T17:12:07;15.30;99.90
43679;DHT22;29279;50.858;4.392;2022-09-16T17:14:34;15.40;99.90
43679;DHT22;29279;50.858;4.392;2022-09-16T17:16:59;15.40;99.90
43679;DHT22;29279;50.858;4.392;2022-09-16T17:19:27;15.40;99.90
43679;DHT22;29279;50.858;4.392;2022-09-16T17:21:53;15.50;99.90
43679;DHT22;29279;50.858;4.392;2022-09-16T17:24:20;15.40;99.90
43679;DHT22;29279;50.858;4.392;2022-09-16T17:26:47;15.30;99.90
43679;DHT22;29279;50.858;4.392;2022-09-16T17:29:12;15.40;99.90
43679;DHT22;29279;50.858;4.392;2022-09-16T17:31:39;15.30;99.90
43679;DHT22;29279;50.858;4.392;2022-09-16T17:34:08;15.20;99.90
43679;DHT22;29279;50.858;4.392;2022-09-16T17:36:40;15.30;99.90
43679;DHT22;29279;50.858;4.392;2022-09-16T17:39:10;15.20;99.90
43679;DHT22;29279;50.858;4.392;2022-09-16T17:41:38;15.20;99.90
43679;DHT22;29279;50.858;4.392;2022-09-16T17:44:05;15.10;99.90
43679;DHT22;29279;50.858;4.392;2022-09-16T17:46:31;15.10;99.90
43679;DHT22;29279;50.858;4.392;2022-09-16T17:49:06;15.10;99.90
43679;DHT22;29279;50.858;4.392;2022-09-16T17:51:33;15.10;99.90
43679;DHT22;29279;50.858;4.392;2022-09-16T17:53:59;15.00;99.90
43679;DHT22;29279;50.858;4.392;2022-09-16T17:56:25;15.00;99.90
43679;DHT22;29279;50.858;4.392;2022-09-16T17:58:52;15.00;99.90
43679;DHT22;29279;50.858;4.392;2022-09-16T18:01:20;15.00;99.90
43679;DHT22;29279;50.858;4.392;2022-09-16T18:03:47;15.00;99.90
43679;DHT22;29279;50.858;4.392;2022-09-16T18:06:16;14.90;99.90
43679;DHT22;29279;50.858;4.392;2022-09-16T18:08:42;14.90;99.90
43679;DHT22;29279;50.858;4.392;2022-09-16T18:11:10;14.80;99.90
43679;DHT22;29279;50.858;4.392;2022-09-16T18:13:36;14.70;99.90
43679;DHT22;29279;50.858;4.392;2022-09-16T18:16:04;14.70;99.90
43679;DHT22;29279;50.858;4.392;2022-09-16T18:18:32;14.60;99.90
43679;DHT22;29279;50.858;4.392;2022-09-16T18:20:58;14.60;99.90
43679;DHT22;29279;50.858;4.392;2022-09-16T18:23:23;14.50;99.90
43679;DHT22;29279;50.858;4.392;2022-09-16T18:25:49;14.50;99.90
43679;DHT22;29279;50.858;4.392;2022-09-16T18:28:15;14.60;99.90
43679;DHT22;29279;50.858;4.392;2022-09-16T18:30:41;14.60;99.90
43679;DHT22;29279;50.858;4.392;2022-09-16T18:33:08;14.60;99.90
43679;DHT22;29279;50.858;4.392;2022-09-16T18:35:34;14.60;99.90
43679;DHT22;29279;50.858;4.392;2022-09-16T18:38:05;14.60;99.90
43679;DHT22;29279;50.858;4.392;2022-09-16T18:40:32;14.50;99.90